Saint Jo, Texas
Current Conditions -  °F | °C
As of 6:35 AM on Saturday 25 Oct 2014 (Local Time) from K0F2 Reporting Station
Haze Haze  
Wind Chill: 58°   Ceiling: Unl
Heat Index: 58°   Visibility: 5mi
Dew Point: 58°   Wind: 0mph
Humidity: 98%   Direction: NA
Pressure: 30.1"   Gusts: NA
Location:  33.69°N, 97.52°W
Report Text: K0F2 251135Z AUTO 00000KT 5SM BR CLR 15/14 A3010 RMK AO2 T01470144
Loading
Personal Weather Stations






























Interactive Weather Map
Tropical Storm Tracking
New forecast layout! Learn more

10-Day Weather Forecast

Advertisements
Track Severe Weather on mobile